sensor_id;sensor_type;location;lat;lon;timestamp;pressure;altitude;pressure_sealevel;temperature;humidity
5284;BME280;15377;48.540;9.268;2023-10-09T00:01:07;98153.94;;;11.82;100.00
5284;BME280;15377;48.540;9.268;2023-10-09T00:03:42;98155.50;;;11.65;100.00
5284;BME280;15377;48.540;9.268;2023-10-09T00:06:09;98133.44;;;11.65;100.00
5284;BME280;15377;48.540;9.268;2023-10-09T00:08:37;98129.25;;;11.87;100.00
5284;BME280;15377;48.540;9.268;2023-10-09T00:11:04;98136.69;;;12.14;100.00
5284;BME280;15377;48.540;9.268;2023-10-09T00:13:42;98139.28;;;12.26;100.00
5284;BME280;15377;48.540;9.268;2023-10-09T00:16:21;98131.41;;;12.43;100.00
5284;BME280;15377;48.540;9.268;2023-10-09T00:19:12;98127.84;;;12.51;100.00
5284;BME280;15377;48.540;9.268;2023-10-09T00:21:48;98131.44;;;12.66;100.00
5284;BME280;15377;48.540;9.268;2023-10-09T00:24:15;98135.88;;;12.73;100.00
5284;BME280;15377;48.540;9.268;2023-10-09T00:29:16;98125.41;;;12.77;100.00
5284;BME280;15377;48.540;9.268;2023-10-09T00:31:54;98126.06;;;12.72;100.00
5284;BME280;15377;48.540;9.268;2023-10-09T00:34:38;98122.81;;;12.41;100.00
5284;BME280;15377;48.540;9.268;2023-10-09T00:37:10;98124.75;;;12.17;100.00
5284;BME280;15377;48.540;9.268;2023-10-09T00:39:44;98108.59;;;11.92;100.00
5284;BME280;15377;48.540;9.268;2023-10-09T00:42:13;98109.00;;;11.99;100.00
5284;BME280;15377;48.540;9.268;2023-10-09T00:44:41;98107.59;;;12.13;100.00
5284;BME280;15377;48.540;9.268;2023-10-09T00:47:14;98111.59;;;12.12;100.00
5284;BME280;15377;48.540;9.268;2023-10-09T00:49:52;98107.66;;;11.95;100.00
5284;BME280;15377;48.540;9.268;2023-10-09T00:52:26;98108.59;;;11.56;100.00
5284;BME280;15377;48.540;9.268;2023-10-09T00:54:58;98109.97;;;11.15;100.00
5284;BME280;15377;48.540;9.268;2023-10-09T00:57:29;98090.97;;;10.90;100.00
5284;BME280;15377;48.540;9.268;2023-10-09T00:59:59;98108.28;;;10.82;100.00
5284;BME280;15377;48.540;9.268;2023-10-09T01:02:28;98106.09;;;10.68;100.00
5284;BME280;15377;48.540;9.268;2023-10-09T01:05:08;98107.31;;;10.58;100.00
5284;BME280;15377;48.540;9.268;2023-10-09T01:07:47;98100.53;;;10.50;100.00
5284;BME280;15377;48.540;9.268;2023-10-09T01:10:13;98079.69;;;10.40;100.00
5284;BME280;15377;48.540;9.268;2023-10-09T01:12:41;98083.22;;;10.41;100.00
5284;BME280;15377;48.540;9.268;2023-10-09T01:15:10;98093.19;;;10.47;100.00
5284;BME280;15377;48.540;9.268;2023-10-09T01:17:43;98086.44;;;10.48;100.00
5284;BME280;15377;48.540;9.268;2023-10-09T01:20:11;98079.41;;;10.47;100.00
5284;BME280;15377;48.540;9.268;2023-10-09T01:22:43;98080.50;;;10.50;100.00
5284;BME280;15377;48.540;9.268;2023-10-09T01:25:09;98085.88;;;10.53;100.00
5284;BME280;15377;48.540;9.268;2023-10-09T01:27:35;98085.72;;;10.48;100.00
5284;BME280;15377;48.540;9.268;2023-10-09T01:30:06;98087.97;;;10.49;100.00
5284;BME280;15377;48.540;9.268;2023-10-09T01:32:31;98072.97;;;10.41;100.00
5284;BME280;15377;48.540;9.268;2023-10-09T01:34:57;98077.59;;;10.44;100.00
5284;BME280;15377;48.540;9.268;2023-10-09T01:37:23;98077.31;;;10.60;100.00
5284;BME280;15377;48.540;9.268;2023-10-09T01:39:52;98077.31;;;10.60;100.00
5284;BME280;15377;48.540;9.268;2023-10-09T01:42:19;98082.84;;;10.60;100.00
5284;BME280;15377;48.540;9.268;2023-10-09T01:44:54;98081.31;;;10.59;100.00
5284;BME280;15377;48.540;9.268;2023-10-09T01:47:20;98062.31;;;10.52;100.00
5284;BME280;15377;48.540;9.268;2023-10-09T01:49:47;98069.66;;;10.55;100.00
5284;BME280;15377;48.540;9.268;2023-10-09T01:52:17;98053.94;;;10.56;100.00
5284;BME280;15377;48.540;9.268;2023-10-09T01:54:50;98060.78;;;10.51;100.00
5284;BME280;15377;48.540;9.268;2023-10-09T01:57:17;98067.22;;;10.57;100.00
5284;BME280;15377;48.540;9.268;2023-10-09T01:59:49;98057.75;;;10.58;100.00
5284;BME280;15377;48.540;9.268;2023-10-09T02:02:18;98056.34;;;10.54;100.00
5284;BME280;15377;48.540;9.268;2023-10-09T02:04:51;98059.28;;;10.59;100.00
5284;BME280;15377;48.540;9.268;2023-10-09T02:07:17;98052.41;;;10.73;100.00
5284;BME280;15377;48.540;9.268;2023-10-09T02:09:53;98050.75;;;10.84;100.00
5284;BME280;15377;48.540;9.268;2023-10-09T02:12:19;98058.25;;;11.10;100.00
5284;BME280;15377;48.540;9.268;2023-10-09T02:14:47;98049.53;;;11.21;100.00
5284;BME280;15377;48.540;9.268;2023-10-09T02:17:12;98057.47;;;11.28;100.00
5284;BME280;15377;48.540;9.268;2023-10-09T02:19:44;98060.22;;;11.28;100.00
5284;BME280;15377;48.540;9.268;2023-10-09T02:22:15;98062.84;;;11.31;100.00
5284;BME280;15377;48.540;9.268;2023-10-09T02:24:42;98059.63;;;11.24;100.00
5284;BME280;15377;48.540;9.268;2023-10-09T02:27:18;98051.06;;;11.22;100.00
5284;BME280;15377;48.540;9.268;2023-10-09T02:30:03;98044.03;;;11.21;100.00
5284;BME280;15377;48.540;9.268;2023-10-09T02:32:44;98039.91;;;11.25;100.00
5284;BME280;15377;48.540;9.268;2023-10-09T02:35:13;98047.09;;;11.23;100.00
5284;BME280;15377;48.540;9.268;2023-10-09T02:37:46;98040.66;;;11.26;100.00
5284;BME280;15377;48.540;9.268;2023-10-09T02:40:13;98050.75;;;11.20;100.00
5284;BME280;15377;48.540;9.268;2023-10-09T02:42:48;98039.13;;;11.16;100.00
5284;BME280;15377;48.540;9.268;2023-10-09T02:45:15;98038.06;;;11.13;100.00
5284;BME280;15377;48.540;9.268;2023-10-09T02:47:49;98035.00;;;11.11;100.00
5284;BME280;15377;48.540;9.268;2023-10-09T02:50:16;98037.91;;;11.17;100.00
5284;BME280;15377;48.540;9.268;2023-10-09T02:52:47;98039.72;;;11.11;100.00
5284;BME280;15377;48.540;9.268;2023-10-09T02:55:13;98035.00;;;11.11;100.00
5284;BME280;15377;48.540;9.268;2023-10-09T02:57:54;98040.03;;;11.13;100.00
5284;BME280;15377;48.540;9.268;2023-10-09T03:00:36;98029.66;;;11.08;100.00
5284;BME280;15377;48.540;9.268;2023-10-09T03:03:03;98030.72;;;11.10;100.00
5284;BME280;15377;48.540;9.268;2023-10-09T03:05:32;98044.19;;;11.17;100.00
5284;BME280;15377;48.540;9.268;2023-10-09T03:07:57;98042.47;;;11.20;100.00
5284;BME280;15377;48.540;9.268;2023-10-09T03:10:24;98025.03;;;11.05;100.00
5284;BME280;15377;48.540;9.268;2023-10-09T03:12:51;98040.81;;;11.22;100.00
5284;BME280;15377;48.540;9.268;2023-10-09T03:15:22;98041.56;;;11.23;100.00
5284;BME280;15377;48.540;9.268;2023-10-09T03:17:48;98042.16;;;11.27;100.00
5284;BME280;15377;48.540;9.268;2023-10-09T03:20:14;98042.78;;;11.31;100.00
5284;BME280;15377;48.540;9.268;2023-10-09T03:22:43;98048.31;;;11.31;100.00
5284;BME280;15377;48.540;9.268;2023-10-09T03:25:10;98049.84;;;11.32;100.00
5284;BME280;15377;48.540;9.268;2023-10-09T03:27:42;98040.94;;;11.28;100.00
5284;BME280;15377;48.540;9.268;2023-10-09T03:30:15;98041.56;;;11.23;100.00
5284;BME280;15377;48.540;9.268;2023-10-09T03:32:45;98036.06;;;11.14;100.00
5284;BME280;15377;48.540;9.268;2023-10-09T03:35:16;98049.53;;;11.21;100.00
5284;BME280;15377;48.540;9.268;2023-10-09T03:37:49;98038.19;;;11.19;100.00
5284;BME280;15377;48.540;9.268;2023-10-09T03:40:14;98042.47;;;11.20;100.00
5284;BME280;15377;48.540;9.268;2023-10-09T03:42:46;98045.72;;;11.18;100.00
5284;BME280;15377;48.540;9.268;2023-10-09T03:45:11;98042.47;;;11.20;100.00
5284;BME280;15377;48.540;9.268;2023-10-09T03:47:56;98032.09;;;11.24;100.00
5284;BME280;15377;48.540;9.268;2023-10-09T03:50:34;98026.41;;;11.27;100.00
5284;BME280;15377;48.540;9.268;2023-10-09T03:53:05;98029.31;;;11.33;100.00
5284;BME280;15377;48.540;9.268;2023-10-09T03:55:36;98023.50;;;11.31;100.00
5284;BME280;15377;48.540;9.268;2023-10-09T03:58:08;98032.38;;;11.35;100.00
5284;BME280;15377;48.540;9.268;2023-10-09T04:00:37;98031.13;;;11.36;100.00
5284;BME280;15377;48.540;9.268;2023-10-09T04:03:14;98029.94;;;11.37;100.00
5284;BME280;15377;48.540;9.268;2023-10-09T04:05:40;98023.66;;;11.36;100.00
5284;BME280;15377;48.540;9.268;2023-10-09T04:08:08;98013.41;;;11.37;100.00
5284;BME280;15377;48.540;9.268;2023-10-09T04:10:41;98018.41;;;11.47;100.00
5284;BME280;15377;48.540;9.268;2023-10-09T04:13:16;98000.19;;;11.50;100.00
5284;BME280;15377;48.540;9.268;2023-10-09T04:15:43;98019.63;;;11.55;100.00
5284;BME280;15377;48.540;9.268;2023-10-09T04:18:08;98018.25;;;11.51;100.00
5284;BME280;15377;48.540;9.268;2023-10-09T04:20:40;98022.69;;;11.48;100.00
5284;BME280;15377;48.540;9.268;2023-10-09T04:23:24;98016.44;;;11.39;100.00
5284;BME280;15377;48.540;9.268;2023-10-09T04:26:00;98027.63;;;11.35;100.00
5284;BME280;15377;48.540;9.268;2023-10-09T04:28:36;98024.25;;;11.40;100.00
5284;BME280;15377;48.540;9.268;2023-10-09T04:31:01;98022.09;;;11.53;100.00
5284;BME280;15377;48.540;9.268;2023-10-09T04:33:31;98028.38;;;11.54;100.00
5284;BME280;15377;48.540;9.268;2023-10-09T04:36:06;98017.38;;;11.45;100.00
5284;BME280;15377;48.540;9.268;2023-10-09T04:38:43;98021.50;;;11.31;100.00
5284;BME280;15377;48.540;9.268;2023-10-09T04:41:32;98023.22;;;11.29;100.00
5284;BME280;15377;48.540;9.268;2023-10-09T04:44:16;98004.09;;;11.25;100.00
5284;BME280;15377;48.540;9.268;2023-10-09T04:46:48;98018.72;;;11.40;100.00
5284;BME280;15377;48.540;9.268;2023-10-09T04:49:34;98016.75;;;11.32;100.00
5284;BME280;15377;48.540;9.268;2023-10-09T04:52:15;98008.53;;;11.23;100.00
5284;BME280;15377;48.540;9.268;2023-10-09T04:54:56;97989.56;;;11.07;100.00
5284;BME280;15377;48.540;9.268;2023-10-09T04:57:42;97998.72;;;11.04;100.00
5284;BME280;15377;48.540;9.268;2023-10-09T05:03:08;98014.03;;;10.96;100.00
5284;BME280;15377;48.540;9.268;2023-10-09T05:05:38;98010.38;;;10.90;100.00
5284;BME280;15377;48.540;9.268;2023-10-09T05:08:11;98013.72;;;10.94;100.00
5284;BME280;15377;48.540;9.268;2023-10-09T05:10:53;98017.41;;;10.91;100.00
5284;BME280;15377;48.540;9.268;2023-10-09T05:18:48;98025.97;;;10.93;100.00
5284;BME280;15377;48.540;9.268;2023-10-09T05:21:35;98036.84;;;10.96;100.00
5284;BME280;15377;48.540;9.268;2023-10-09T05:24:03;98028.28;;;10.94;100.00
5284;BME280;15377;48.540;9.268;2023-10-09T05:26:42;98027.50;;;11.03;100.00
5284;BME280;15377;48.540;9.268;2023-10-09T05:29:24;98028.44;;;11.00;100.00
5284;BME280;15377;48.540;9.268;2023-10-09T05:31:50;98026.59;;;11.06;100.00
5284;BME280;15377;48.540;9.268;2023-10-09T05:34:42;98036.38;;;11.16;100.00
5284;BME280;15377;48.540;9.268;2023-10-09T05:37:34;98034.06;;;11.14;100.00
5284;BME280;15377;48.540;9.268;2023-10-09T05:42:35;98037.28;;;11.13;100.00
5284;BME280;15377;48.540;9.268;2023-10-09T05:45:07;98034.06;;;11.14;100.00
5284;BME280;15377;48.540;9.268;2023-10-09T05:47:46;98035.94;;;11.17;100.00
5284;BME280;15377;48.540;9.268;2023-10-09T05:50:31;98027.03;;;11.13;100.00
5284;BME280;15377;48.540;9.268;2023-10-09T05:53:01;98030.84;;;11.34;100.00
5284;BME280;15377;48.540;9.268;2023-10-09T05:55:27;98042.63;;;11.34;100.00
5284;BME280;15377;48.540;9.268;2023-10-09T05:57:58;98027.16;;;11.28;100.00
5284;BME280;15377;48.540;9.268;2023-10-09T06:00:59;98046.00;;;11.38;100.00
5284;BME280;15377;48.540;9.268;2023-10-09T06:03:30;98032.06;;;11.33;100.00
5284;BME280;15377;48.540;9.268;2023-10-09T06:06:10;98045.69;;;11.45;100.00
5284;BME280;15377;48.540;9.268;2023-10-09T06:08:43;98044.78;;;11.57;100.00
5284;BME280;15377;48.540;9.268;2023-10-09T06:11:12;98047.63;;;11.81;100.00
5284;BME280;15377;48.540;9.268;2023-10-09T06:13:58;98048.41;;;12.14;100.00
5284;BME280;15377;48.540;9.268;2023-10-09T06:16:41;98053.47;;;12.48;100.00
5284;BME280;15377;48.540;9.268;2023-10-09T06:19:07;98049.47;;;12.72;100.00
5284;BME280;15377;48.540;9.268;2023-10-09T06:21:34;98068.22;;;12.92;100.00
5284;BME280;15377;48.540;9.268;2023-10-09T06:24:25;98074.59;;;13.07;100.00
5284;BME280;15377;48.540;9.268;2023-10-09T06:27:10;98071.75;;;13.16;100.00
5284;BME280;15377;48.540;9.268;2023-10-09T06:29:36;98066.47;;;13.27;100.00
5284;BME280;15377;48.540;9.268;2023-10-09T06:32:05;98064.19;;;13.40;100.00
5284;BME280;15377;48.540;9.268;2023-10-09T06:34:54;98057.72;;;13.43;100.00
5284;BME280;15377;48.540;9.268;2023-10-09T06:37:39;98061.94;;;13.53;100.00
5284;BME280;15377;48.540;9.268;2023-10-09T06:40:25;98063.16;;;13.66;100.00
5284;BME280;15377;48.540;9.268;2023-10-09T06:43:05;98078.16;;;13.74;100.00
5284;BME280;15377;48.540;9.268;2023-10-09T06:45:54;98072.25;;;13.81;100.00
5284;BME280;15377;48.540;9.268;2023-10-09T06:48:23;98066.50;;;13.85;100.00
5284;BME280;15377;48.540;9.268;2023-10-09T06:51:13;98076.22;;;13.95;100.00
5284;BME280;15377;48.540;9.268;2023-10-09T06:53:54;98071.84;;;14.03;100.00
5284;BME280;15377;48.540;9.268;2023-10-09T06:58:50;98070.72;;;14.24;100.00
5284;BME280;15377;48.540;9.268;2023-10-09T07:01:20;98069.75;;;14.27;100.00
5284;BME280;15377;48.540;9.268;2023-10-09T07:03:50;98077.25;;;14.41;100.00
5284;BME280;15377;48.540;9.268;2023-10-09T07:06:21;98083.47;;;14.50;100.00
5284;BME280;15377;48.540;9.268;2023-10-09T07:08:54;98086.09;;;14.59;100.00
5284;BME280;15377;48.540;9.268;2023-10-09T07:11:34;98079.38;;;14.66;100.00
5284;BME280;15377;48.540;9.268;2023-10-09T07:14:06;98082.19;;;14.85;100.00
5284;BME280;15377;48.540;9.268;2023-10-09T07:16:59;98089.97;;;15.01;100.00
5284;BME280;15377;48.540;9.268;2023-10-09T07:19:30;98089.56;;;15.08;100.00
5284;BME280;15377;48.540;9.268;2023-10-09T07:22:00;98091.97;;;15.21;100.00
5284;BME280;15377;48.540;9.268;2023-10-09T07:24:31;98087.91;;;15.36;100.00
5284;BME280;15377;48.540;9.268;2023-10-09T07:27:12;98085.94;;;15.42;100.00
5284;BME280;15377;48.540;9.268;2023-10-09T07:29:40;98090.44;;;15.60;100.00
5284;BME280;15377;48.540;9.268;2023-10-09T07:32:15;98088.03;;;15.73;100.00
5284;BME280;15377;48.540;9.268;2023-10-09T07:34:48;98085.22;;;15.93;100.00
5284;BME280;15377;48.540;9.268;2023-10-09T07:37:23;98085.63;;;16.11;100.00
5284;BME280;15377;48.540;9.268;2023-10-09T07:39:51;98075.38;;;16.23;100.00
5284;BME280;15377;48.540;9.268;2023-10-09T07:42:24;98075.81;;;16.41;100.00
5284;BME280;15377;48.540;9.268;2023-10-09T07:45:09;98069.88;;;16.59;100.00
5284;BME280;15377;48.540;9.268;2023-10-09T07:47:58;98070.97;;;16.78;100.00
5284;BME280;15377;48.540;9.268;2023-10-09T07:50:28;98073.09;;;16.94;100.00
5284;BME280;15377;48.540;9.268;2023-10-09T07:53:19;98071.41;;;17.08;100.00
5284;BME280;15377;48.540;9.268;2023-10-09T07:55:55;98071.44;;;17.24;100.00
5284;BME280;15377;48.540;9.268;2023-10-09T07:58:22;98078.09;;;17.38;100.00
5284;BME280;15377;48.540;9.268;2023-10-09T08:00:55;98076.41;;;17.51;100.00
5284;BME280;15377;48.540;9.268;2023-10-09T08:03:24;98070.06;;;17.62;100.00
5284;BME280;15377;48.540;9.268;2023-10-09T08:05:51;98082.28;;;17.75;100.00
5284;BME280;15377;48.540;9.268;2023-10-09T08:08:18;98075.97;;;17.91;100.00
5284;BME280;15377;48.540;9.268;2023-10-09T08:10:59;98077.00;;;18.10;100.00
5284;BME280;15377;48.540;9.268;2023-10-09T08:13:42;98080.53;;;18.16;100.00
5284;BME280;15377;48.540;9.268;2023-10-09T08:16:26;98084.13;;;18.33;100.00
5284;BME280;15377;48.540;9.268;2023-10-09T08:19:04;98084.63;;;18.48;100.00
5284;BME280;15377;48.540;9.268;2023-10-09T08:21:48;98077.00;;;18.65;100.00
5284;BME280;15377;48.540;9.268;2023-10-09T08:24:33;98076.69;;;18.79;100.00
5284;BME280;15377;48.540;9.268;2023-10-09T08:27:07;98071.03;;;19.07;100.00
5284;BME280;15377;48.540;9.268;2023-10-09T08:29:51;98068.72;;;19.33;100.00
5284;BME280;15377;48.540;9.268;2023-10-09T08:32:36;98068.25;;;19.69;100.00
5284;BME280;15377;48.540;9.268;2023-10-09T08:35:06;98070.94;;;19.86;100.00
5284;BME280;15377;48.540;9.268;2023-10-09T08:37:51;98064.59;;;20.26;100.00
5284;BME280;15377;48.540;9.268;2023-10-09T08:40:19;98050.44;;;20.42;100.00
5284;BME280;15377;48.540;9.268;2023-10-09T08:42:52;98070.41;;;20.81;100.00
5284;BME280;15377;48.540;9.268;2023-10-09T08:45:21;98060.22;;;21.08;100.00
5284;BME280;15377;48.540;9.268;2023-10-09T08:47:53;98067.53;;;21.35;100.00
5284;BME280;15377;48.540;9.268;2023-10-09T08:50:20;98062.53;;;21.65;100.00
5284;BME280;15377;48.540;9.268;2023-10-09T08:52:47;98067.69;;;21.98;100.00
5284;BME280;15377;48.540;9.268;2023-10-09T08:55:14;98074.00;;;22.35;100.00
5284;BME280;15377;48.540;9.268;2023-10-09T08:57:42;98066.41;;;22.49;100.00
5284;BME280;15377;48.540;9.268;2023-10-09T09:00:16;98073.00;;;22.64;100.00
5284;BME280;15377;48.540;9.268;2023-10-09T09:02:46;98080.44;;;22.62;98.35
5284;BME280;15377;48.540;9.268;2023-10-09T09:05:21;98081.34;;;22.83;100.00
5284;BME280;15377;48.540;9.268;2023-10-09T09:07:47;98085.03;;;22.91;100.00
5284;BME280;15377;48.540;9.268;2023-10-09T09:10:13;98079.00;;;22.87;96.37
5284;BME280;15377;48.540;9.268;2023-10-09T09:12:48;98091.63;;;23.06;96.05
5284;BME280;15377;48.540;9.268;2023-10-09T09:15:27;98090.03;;;23.23;95.65
5284;BME280;15377;48.540;9.268;2023-10-09T09:18:06;98090.16;;;23.31;97.46
5284;BME280;15377;48.540;9.268;2023-10-09T09:20:36;98088.31;;;23.33;94.18
5284;BME280;15377;48.540;9.268;2023-10-09T09:23:05;98075.53;;;23.32;91.93
5284;BME280;15377;48.540;9.268;2023-10-09T09:25:45;98096.50;;;23.57;89.00
5284;BME280;15377;48.540;9.268;2023-10-09T09:28:12;98087.41;;;23.51;88.91
5284;BME280;15377;48.540;9.268;2023-10-09T09:30:39;98105.72;;;23.78;89.70
5284;BME280;15377;48.540;9.268;2023-10-09T09:33:25;98106.38;;;23.97;89.36
5284;BME280;15377;48.540;9.268;2023-10-09T09:36:09;98103.78;;;23.99;90.95
5284;BME280;15377;48.540;9.268;2023-10-09T09:38:37;98097.97;;;24.18;88.01
5284;BME280;15377;48.540;9.268;2023-10-09T09:41:18;98100.81;;;24.38;85.94
5284;BME280;15377;48.540;9.268;2023-10-09T09:43:57;98093.03;;;24.31;86.12
5284;BME280;15377;48.540;9.268;2023-10-09T09:46:35;98104.00;;;24.55;85.44
5284;BME280;15377;48.540;9.268;2023-10-09T09:49:04;98108.09;;;24.34;81.66
5284;BME280;15377;48.540;9.268;2023-10-09T09:51:33;98088.78;;;24.38;84.91
5284;BME280;15377;48.540;9.268;2023-10-09T09:54:00;98109.53;;;24.48;85.60
5284;BME280;15377;48.540;9.268;2023-10-09T09:56:28;98117.72;;;24.79;86.02
5284;BME280;15377;48.540;9.268;2023-10-09T09:58:57;98113.84;;;24.90;83.15
5284;BME280;15377;48.540;9.268;2023-10-09T10:01:29;98111.38;;;24.86;82.22
5284;BME280;15377;48.540;9.268;2023-10-09T10:04:07;98120.69;;;24.40;84.26
5284;BME280;15377;48.540;9.268;2023-10-09T10:06:37;98120.31;;;24.77;83.82
5284;BME280;15377;48.540;9.268;2023-10-09T10:09:06;98111.69;;;24.75;84.04
5284;BME280;15377;48.540;9.268;2023-10-09T10:11:45;98115.66;;;24.80;85.05
5284;BME280;15377;48.540;9.268;2023-10-09T10:14:14;98113.28;;;25.40;84.34
5284;BME280;15377;48.540;9.268;2023-10-09T10:17:04;98094.44;;;26.13;79.11
5284;BME280;15377;48.540;9.268;2023-10-09T10:20:03;98108.44;;;26.41;74.23
5284;BME280;15377;48.540;9.268;2023-10-09T10:22:44;98105.38;;;26.17;73.65
5284;BME280;15377;48.540;9.268;2023-10-09T10:30:46;98101.72;;;26.52;72.43
5284;BME280;15377;48.540;9.268;2023-10-09T10:33:21;98103.56;;;26.49;65.57
5284;BME280;15377;48.540;9.268;2023-10-09T10:35:52;98096.44;;;26.63;63.69
5284;BME280;15377;48.540;9.268;2023-10-09T10:38:33;98097.84;;;26.27;63.27
5284;BME280;15377;48.540;9.268;2023-10-09T10:43:46;98091.28;;;26.32;57.61
5284;BME280;15377;48.540;9.268;2023-10-09T10:46:22;98095.69;;;26.55;60.17
5284;BME280;15377;48.540;9.268;2023-10-09T10:49:05;98099.09;;;26.84;58.15
5284;BME280;15377;48.540;9.268;2023-10-09T10:51:41;98095.66;;;27.00;56.81
5284;BME280;15377;48.540;9.268;2023-10-09T10:54:20;98080.97;;;26.94;53.64
5284;BME280;15377;48.540;9.268;2023-10-09T10:57:20;98097.19;;;27.16;53.65
5284;BME280;15377;48.540;9.268;2023-10-09T10:59:56;98096.22;;;27.36;55.86
5284;BME280;15377;48.540;9.268;2023-10-09T11:02:43;98100.97;;;27.19;56.27
5284;BME280;15377;48.540;9.268;2023-10-09T11:05:09;98080.03;;;26.54;54.25
5284;BME280;15377;48.540;9.268;2023-10-09T11:07:48;98092.09;;;26.55;58.93
5284;BME280;15377;48.540;9.268;2023-10-09T11:10:21;98090.38;;;26.44;59.37
5284;BME280;15377;48.540;9.268;2023-10-09T11:12:53;98082.66;;;25.79;55.47
5284;BME280;15377;48.540;9.268;2023-10-09T11:15:51;98080.16;;;25.68;56.71
5284;BME280;15377;48.540;9.268;2023-10-09T11:18:42;98080.84;;;25.46;58.41
5284;BME280;15377;48.540;9.268;2023-10-09T11:21:13;98066.84;;;25.33;58.79
5284;BME280;15377;48.540;9.268;2023-10-09T11:23:39;98073.69;;;25.17;58.92
5284;BME280;15377;48.540;9.268;2023-10-09T11:26:19;98087.16;;;25.11;60.89
5284;BME280;15377;48.540;9.268;2023-10-09T11:29:09;98079.22;;;25.02;60.80
5284;BME280;15377;48.540;9.268;2023-10-09T11:32:03;98090.09;;;24.98;61.48
5284;BME280;15377;48.540;9.268;2023-10-09T11:34:31;98094.53;;;25.14;61.65
5284;BME280;15377;48.540;9.268;2023-10-09T11:37:01;98090.91;;;25.06;60.05
5284;BME280;15377;48.540;9.268;2023-10-09T11:39:29;98104.25;;;25.34;59.47
5284;BME280;15377;48.540;9.268;2023-10-09T11:42:07;98094.09;;;25.10;57.47
5284;BME280;15377;48.540;9.268;2023-10-09T11:44:40;98088.22;;;25.01;59.34
5284;BME280;15377;48.540;9.268;2023-10-09T11:47:09;98092.19;;;25.05;59.04
5284;BME280;15377;48.540;9.268;2023-10-09T11:49:56;98084.09;;;25.02;61.07
5284;BME280;15377;48.540;9.268;2023-10-09T11:52:58;98077.22;;;24.82;60.18
5284;BME280;15377;48.540;9.268;2023-10-09T11:55:44;98071.06;;;24.91;61.61
5284;BME280;15377;48.540;9.268;2023-10-09T11:58:17;98072.06;;;25.01;63.13
5284;BME280;15377;48.540;9.268;2023-10-09T12:00:57;98082.94;;;24.97;63.77
5284;BME280;15377;48.540;9.268;2023-10-09T12:03:29;98082.84;;;24.82;64.85
5284;BME280;15377;48.540;9.268;2023-10-09T12:05:59;98072.13;;;24.81;64.46
5284;BME280;15377;48.540;9.268;2023-10-09T12:08:31;98054.34;;;24.65;66.58
5284;BME280;15377;48.540;9.268;2023-10-09T12:10:57;98048.13;;;24.59;68.62
5284;BME280;15377;48.540;9.268;2023-10-09T12:13:23;98053.16;;;24.40;74.97
5284;BME280;15377;48.540;9.268;2023-10-09T12:15:52;98052.88;;;24.10;80.11
5284;BME280;15377;48.540;9.268;2023-10-09T12:18:19;98043.34;;;23.93;80.41
5284;BME280;15377;48.540;9.268;2023-10-09T12:20:45;98043.28;;;23.72;73.70
5284;BME280;15377;48.540;9.268;2023-10-09T12:23:17;98041.66;;;23.77;76.24
5284;BME280;15377;48.540;9.268;2023-10-09T12:25:43;98046.50;;;23.76;74.75
5284;BME280;15377;48.540;9.268;2023-10-09T12:28:10;98045.19;;;23.77;79.68
5284;BME280;15377;48.540;9.268;2023-10-09T12:30:38;98035.41;;;23.71;80.30
5284;BME280;15377;48.540;9.268;2023-10-09T12:33:05;98034.38;;;23.81;80.09
5284;BME280;15377;48.540;9.268;2023-10-09T12:35:39;98025.09;;;23.86;80.16
5284;BME280;15377;48.540;9.268;2023-10-09T12:38:05;98032.66;;;24.12;76.82
5284;BME280;15377;48.540;9.268;2023-10-09T12:40:35;98031.78;;;24.37;74.61
5284;BME280;15377;48.540;9.268;2023-10-09T12:43:01;98023.81;;;24.69;76.85
5284;BME280;15377;48.540;9.268;2023-10-09T12:45:26;98028.50;;;24.95;76.78
5284;BME280;15377;48.540;9.268;2023-10-09T12:47:56;98017.50;;;25.12;68.85
5284;BME280;15377;48.540;9.268;2023-10-09T12:50:28;97993.59;;;25.33;65.50
5284;BME280;15377;48.540;9.268;2023-10-09T12:52:57;97990.81;;;25.48;65.28
5284;BME280;15377;48.540;9.268;2023-10-09T12:55:27;97978.09;;;25.70;65.98
5284;BME280;15377;48.540;9.268;2023-10-09T12:57:59;97968.78;;;25.97;66.10
5284;BME280;15377;48.540;9.268;2023-10-09T13:00:26;97968.59;;;26.18;65.64
5284;BME280;15377;48.540;9.268;2023-10-09T13:02:52;97967.13;;;26.24;62.97
5284;BME280;15377;48.540;9.268;2023-10-09T13:05:17;97970.69;;;26.40;63.67
5284;BME280;15377;48.540;9.268;2023-10-09T13:07:52;97973.31;;;26.60;61.66
5284;BME280;15377;48.540;9.268;2023-10-09T13:10:19;97971.44;;;26.63;59.73
5284;BME280;15377;48.540;9.268;2023-10-09T13:12:44;97968.44;;;26.53;60.47
5284;BME280;15377;48.540;9.268;2023-10-09T13:15:10;97973.69;;;26.42;58.45
5284;BME280;15377;48.540;9.268;2023-10-09T13:17:39;97973.31;;;26.60;58.43
5284;BME280;15377;48.540;9.268;2023-10-09T13:20:05;97979.72;;;26.46;59.53
5284;BME280;15377;48.540;9.268;2023-10-09T13:22:42;97978.38;;;26.39;56.74
5284;BME280;15377;48.540;9.268;2023-10-09T13:25:11;97986.47;;;26.20;56.72
5284;BME280;15377;48.540;9.268;2023-10-09T13:27:50;97985.34;;;26.38;57.59
5284;BME280;15377;48.540;9.268;2023-10-09T13:30:19;97988.00;;;26.36;58.50
5284;BME280;15377;48.540;9.268;2023-10-09T13:32:48;97978.59;;;26.26;57.85
5284;BME280;15377;48.540;9.268;2023-10-09T13:35:18;97965.78;;;26.03;56.25
5284;BME280;15377;48.540;9.268;2023-10-09T13:37:44;97983.44;;;25.96;56.67
5284;BME280;15377;48.540;9.268;2023-10-09T13:40:16;97982.53;;;26.08;56.39
5284;BME280;15377;48.540;9.268;2023-10-09T13:42:55;97979.72;;;26.23;55.91
5284;BME280;15377;48.540;9.268;2023-10-09T13:45:27;97984.59;;;26.30;56.00
5284;BME280;15377;48.540;9.268;2023-10-09T13:47:56;97978.38;;;26.39;56.76
5284;BME280;15377;48.540;9.268;2023-10-09T13:50:24;97987.25;;;26.43;59.57
5284;BME280;15377;48.540;9.268;2023-10-09T13:52:54;97976.16;;;26.38;57.14
5284;BME280;15377;48.540;9.268;2023-10-09T13:55:20;97990.25;;;26.23;55.46
5284;BME280;15377;48.540;9.268;2023-10-09T13:57:45;97982.34;;;26.06;54.75
5284;BME280;15377;48.540;9.268;2023-10-09T14:00:15;97983.88;;;26.30;57.75
5284;BME280;15377;48.540;9.268;2023-10-09T14:03:02;97984.81;;;26.32;54.53